Letourneau, Mississippi
Current Conditions -  °F | °C
As of 3:15 AM on Monday 22 Dec 2014 (Local Time) from KVKS Reporting Station
Overcast Overcast  
Wind Chill: 54°   Ceiling: 800
Heat Index: 54°   Visibility: 10mi
Dew Point: 50°   Wind: 5mph
Humidity: 88%   Direction: 140°SE
Pressure: 29.88"   Gusts: NA
Location:  32.3914°N, 90.8257°W
Report Text: KVKS 220915Z AUTO 14004KT 10SM OVC008 12/10 A2988 RMK A01
Loading
Personal Weather Stations






























Interactive Weather Map New forecast layout! Learn more

10-Day Weather Forecast

Advertisements
Track Severe Weather on mobile